sensor_id;sensor_type;location;lat;lon;timestamp;temperature;humidity
42095;DHT22;27753;55.724;37.612;2024-01-11T00:00:48;-4.60;99.90
42095;DHT22;27753;55.724;37.612;2024-01-11T00:03:14;-4.60;99.90
42095;DHT22;27753;55.724;37.612;2024-01-11T00:05:40;-4.60;99.90
42095;DHT22;27753;55.724;37.612;2024-01-11T00:08:07;-4.60;99.90
42095;DHT22;27753;55.724;37.612;2024-01-11T00:10:33;-4.60;99.90
42095;DHT22;27753;55.724;37.612;2024-01-11T00:12:59;-4.50;99.90
42095;DHT22;27753;55.724;37.612;2024-01-11T00:15:25;-4.50;99.90
42095;DHT22;27753;55.724;37.612;2024-01-11T00:17:50;-4.40;99.90
42095;DHT22;27753;55.724;37.612;2024-01-11T00:20:16;-4.40;99.90
42095;DHT22;27753;55.724;37.612;2024-01-11T00:22:42;-4.30;99.90
42095;DHT22;27753;55.724;37.612;2024-01-11T00:25:08;-4.30;99.90
42095;DHT22;27753;55.724;37.612;2024-01-11T00:27:34;-4.30;99.90
42095;DHT22;27753;55.724;37.612;2024-01-11T00:30:00;-4.20;99.90
42095;DHT22;27753;55.724;37.612;2024-01-11T00:32:26;-4.20;99.90
42095;DHT22;27753;55.724;37.612;2024-01-11T00:34:51;-4.20;99.90
42095;DHT22;27753;55.724;37.612;2024-01-11T00:37:18;-4.10;99.90
42095;DHT22;27753;55.724;37.612;2024-01-11T00:39:44;-4.10;99.90
42095;DHT22;27753;55.724;37.612;2024-01-11T00:42:10;-4.10;99.90
42095;DHT22;27753;55.724;37.612;2024-01-11T00:44:35;-4.00;99.90
42095;DHT22;27753;55.724;37.612;2024-01-11T00:47:01;-4.00;99.90
42095;DHT22;27753;55.724;37.612;2024-01-11T00:49:27;-3.90;99.90
42095;DHT22;27753;55.724;37.612;2024-01-11T00:51:53;-3.90;99.90
42095;DHT22;27753;55.724;37.612;2024-01-11T00:54:19;-3.80;99.90
42095;DHT22;27753;55.724;37.612;2024-01-11T00:56:45;-3.80;99.90
42095;DHT22;27753;55.724;37.612;2024-01-11T00:59:11;-3.80;99.90
42095;DHT22;27753;55.724;37.612;2024-01-11T01:01:37;-3.80;99.90
42095;DHT22;27753;55.724;37.612;2024-01-11T01:04:03;-3.70;99.90
42095;DHT22;27753;55.724;37.612;2024-01-11T01:06:28;-3.70;99.90
42095;DHT22;27753;55.724;37.612;2024-01-11T01:08:55;-3.70;99.90
42095;DHT22;27753;55.724;37.612;2024-01-11T01:11:21;-3.60;99.90
42095;DHT22;27753;55.724;37.612;2024-01-11T01:13:47;-3.60;99.90
42095;DHT22;27753;55.724;37.612;2024-01-11T01:16:13;-3.50;99.90
42095;DHT22;27753;55.724;37.612;2024-01-11T01:18:39;-3.50;99.90
42095;DHT22;27753;55.724;37.612;2024-01-11T01:21:05;-3.50;99.90
42095;DHT22;27753;55.724;37.612;2024-01-11T01:23:32;-3.40;99.90
42095;DHT22;27753;55.724;37.612;2024-01-11T01:25:58;-3.40;99.90
42095;DHT22;27753;55.724;37.612;2024-01-11T01:28:24;-3.30;99.90
42095;DHT22;27753;55.724;37.612;2024-01-11T01:30:50;-3.30;99.90
42095;DHT22;27753;55.724;37.612;2024-01-11T01:33:15;-3.30;99.90
42095;DHT22;27753;55.724;37.612;2024-01-11T01:35:41;-3.20;99.90
42095;DHT22;27753;55.724;37.612;2024-01-11T01:38:07;-3.20;99.90
42095;DHT22;27753;55.724;37.612;2024-01-11T01:40:33;-3.20;99.90
42095;DHT22;27753;55.724;37.612;2024-01-11T01:42:59;-3.10;99.90
42095;DHT22;27753;55.724;37.612;2024-01-11T01:45:25;-3.10;99.90
42095;DHT22;27753;55.724;37.612;2024-01-11T01:47:52;-3.10;99.90
42095;DHT22;27753;55.724;37.612;2024-01-11T01:50:19;-3.00;99.90
42095;DHT22;27753;55.724;37.612;2024-01-11T01:52:46;-3.00;99.90
42095;DHT22;27753;55.724;37.612;2024-01-11T01:55:14;-2.90;99.90
42095;DHT22;27753;55.724;37.612;2024-01-11T01:57:42;-2.90;99.90
42095;DHT22;27753;55.724;37.612;2024-01-11T02:00:11;-2.90;99.90
42095;DHT22;27753;55.724;37.612;2024-01-11T02:02:44;-2.80;99.90
42095;DHT22;27753;55.724;37.612;2024-01-11T02:05:13;-2.80;99.90
42095;DHT22;27753;55.724;37.612;2024-01-11T02:07:40;-2.70;99.90
42095;DHT22;27753;55.724;37.612;2024-01-11T02:10:07;-2.70;99.90
42095;DHT22;27753;55.724;37.612;2024-01-11T02:12:35;-2.60;99.90
42095;DHT22;27753;55.724;37.612;2024-01-11T02:15:03;-2.60;99.90
42095;DHT22;27753;55.724;37.612;2024-01-11T02:17:30;-2.50;99.90
42095;DHT22;27753;55.724;37.612;2024-01-11T02:19:56;-2.50;99.90
42095;DHT22;27753;55.724;37.612;2024-01-11T02:22:29;-2.40;99.90
42095;DHT22;27753;55.724;37.612;2024-01-11T02:24:55;-2.40;99.90
42095;DHT22;27753;55.724;37.612;2024-01-11T02:27:23;-2.30;99.90
42095;DHT22;27753;55.724;37.612;2024-01-11T02:29:49;-2.30;99.90
42095;DHT22;27753;55.724;37.612;2024-01-11T02:32:15;-2.20;99.90
42095;DHT22;27753;55.724;37.612;2024-01-11T02:34:41;-2.20;99.90
42095;DHT22;27753;55.724;37.612;2024-01-11T02:37:08;-2.10;99.90
42095;DHT22;27753;55.724;37.612;2024-01-11T02:39:34;-2.10;99.90
42095;DHT22;27753;55.724;37.612;2024-01-11T02:42:00;-2.00;99.90
42095;DHT22;27753;55.724;37.612;2024-01-11T02:44:26;-2.00;99.90
42095;DHT22;27753;55.724;37.612;2024-01-11T02:46:52;-1.90;99.90
42095;DHT22;27753;55.724;37.612;2024-01-11T02:49:18;-1.90;99.90
42095;DHT22;27753;55.724;37.612;2024-01-11T02:51:44;-1.90;99.90
42095;DHT22;27753;55.724;37.612;2024-01-11T02:54:10;-1.80;99.90
42095;DHT22;27753;55.724;37.612;2024-01-11T02:56:36;-1.70;99.90
42095;DHT22;27753;55.724;37.612;2024-01-11T02:59:02;-1.70;99.90
42095;DHT22;27753;55.724;37.612;2024-01-11T03:01:28;-1.70;99.90
42095;DHT22;27753;55.724;37.612;2024-01-11T03:03:54;-1.60;99.90
42095;DHT22;27753;55.724;37.612;2024-01-11T03:06:20;-1.50;99.90
42095;DHT22;27753;55.724;37.612;2024-01-11T03:08:50;-1.50;99.90
42095;DHT22;27753;55.724;37.612;2024-01-11T03:11:16;-1.40;99.90
42095;DHT22;27753;55.724;37.612;2024-01-11T03:13:42;-1.40;99.90
42095;DHT22;27753;55.724;37.612;2024-01-11T03:16:08;-1.40;99.90
42095;DHT22;27753;55.724;37.612;2024-01-11T03:18:34;-1.30;99.90
42095;DHT22;27753;55.724;37.612;2024-01-11T03:21:00;-1.20;99.90
42095;DHT22;27753;55.724;37.612;2024-01-11T03:23:26;-1.20;99.90
42095;DHT22;27753;55.724;37.612;2024-01-11T03:25:53;-1.10;99.90
42095;DHT22;27753;55.724;37.612;2024-01-11T03:28:19;-1.10;99.90
42095;DHT22;27753;55.724;37.612;2024-01-11T03:30:44;-1.00;99.90
42095;DHT22;27753;55.724;37.612;2024-01-11T03:33:10;-1.00;99.90
42095;DHT22;27753;55.724;37.612;2024-01-11T03:35:36;-0.90;99.90
42095;DHT22;27753;55.724;37.612;2024-01-11T03:38:05;-0.90;99.90
42095;DHT22;27753;55.724;37.612;2024-01-11T03:40:31;-0.80;99.90
42095;DHT22;27753;55.724;37.612;2024-01-11T03:42:57;-0.80;99.90
42095;DHT22;27753;55.724;37.612;2024-01-11T03:45:22;-0.70;99.90
42095;DHT22;27753;55.724;37.612;2024-01-11T03:47:48;-0.70;99.90
42095;DHT22;27753;55.724;37.612;2024-01-11T03:50:14;-0.60;99.90
42095;DHT22;27753;55.724;37.612;2024-01-11T03:52:42;-0.60;99.90
42095;DHT22;27753;55.724;37.612;2024-01-11T03:55:08;-0.50;99.90
42095;DHT22;27753;55.724;37.612;2024-01-11T03:57:34;-0.50;99.90
42095;DHT22;27753;55.724;37.612;2024-01-11T04:00:00;-0.50;99.90
42095;DHT22;27753;55.724;37.612;2024-01-11T04:02:26;-0.40;99.90
42095;DHT22;27753;55.724;37.612;2024-01-11T04:04:52;-0.40;99.90
42095;DHT22;27753;55.724;37.612;2024-01-11T04:07:19;-0.30;99.90
42095;DHT22;27753;55.724;37.612;2024-01-11T04:09:45;-0.30;99.90
42095;DHT22;27753;55.724;37.612;2024-01-11T04:12:11;-0.30;99.90
42095;DHT22;27753;55.724;37.612;2024-01-11T04:14:40;-0.20;99.90
42095;DHT22;27753;55.724;37.612;2024-01-11T04:17:06;-0.20;99.90
42095;DHT22;27753;55.724;37.612;2024-01-11T04:19:32;-0.20;99.90
42095;DHT22;27753;55.724;37.612;2024-01-11T04:21:58;-0.20;99.90
42095;DHT22;27753;55.724;37.612;2024-01-11T04:24:24;-0.10;99.90
42095;DHT22;27753;55.724;37.612;2024-01-11T04:26:50;-0.10;99.90
42095;DHT22;27753;55.724;37.612;2024-01-11T04:29:16;0.00;99.90
42095;DHT22;27753;55.724;37.612;2024-01-11T04:31:42;0.00;99.90
42095;DHT22;27753;55.724;37.612;2024-01-11T04:34:07;0.00;99.90
42095;DHT22;27753;55.724;37.612;2024-01-11T04:36:40;0.00;99.90
42095;DHT22;27753;55.724;37.612;2024-01-11T04:39:09;0.00;99.90
42095;DHT22;27753;55.724;37.612;2024-01-11T04:41:35;0.10;99.90
42095;DHT22;27753;55.724;37.612;2024-01-11T04:44:04;0.10;99.90
42095;DHT22;27753;55.724;37.612;2024-01-11T04:46:30;0.10;99.90
42095;DHT22;27753;55.724;37.612;2024-01-11T04:48:56;0.10;99.90
42095;DHT22;27753;55.724;37.612;2024-01-11T04:51:22;0.10;99.90
42095;DHT22;27753;55.724;37.612;2024-01-11T04:53:49;0.10;99.90
42095;DHT22;27753;55.724;37.612;2024-01-11T04:56:16;0.10;99.90
42095;DHT22;27753;55.724;37.612;2024-01-11T04:58:44;0.10;99.90
42095;DHT22;27753;55.724;37.612;2024-01-11T05:01:17;0.20;99.90
42095;DHT22;27753;55.724;37.612;2024-01-11T05:03:44;0.20;99.90
42095;DHT22;27753;55.724;37.612;2024-01-11T05:06:18;0.20;99.90
42095;DHT22;27753;55.724;37.612;2024-01-11T05:08:47;0.20;99.90
42095;DHT22;27753;55.724;37.612;2024-01-11T05:11:21;0.20;99.90
42095;DHT22;27753;55.724;37.612;2024-01-11T05:13:47;0.20;99.90
42095;DHT22;27753;55.724;37.612;2024-01-11T05:16:25;0.20;99.90
42095;DHT22;27753;55.724;37.612;2024-01-11T05:18:52;0.20;99.90
42095;DHT22;27753;55.724;37.612;2024-01-11T05:21:19;0.20;99.90
42095;DHT22;27753;55.724;37.612;2024-01-11T05:23:45;0.20;99.90
42095;DHT22;27753;55.724;37.612;2024-01-11T05:26:12;0.20;99.90
42095;DHT22;27753;55.724;37.612;2024-01-11T05:28:38;0.20;99.90
42095;DHT22;27753;55.724;37.612;2024-01-11T05:31:11;0.30;99.90
42095;DHT22;27753;55.724;37.612;2024-01-11T05:33:38;0.30;99.90
42095;DHT22;27753;55.724;37.612;2024-01-11T05:36:05;0.30;99.90
42095;DHT22;27753;55.724;37.612;2024-01-11T05:38:31;0.30;99.90
42095;DHT22;27753;55.724;37.612;2024-01-11T05:40:57;0.30;99.90
42095;DHT22;27753;55.724;37.612;2024-01-11T05:43:23;0.30;99.90
42095;DHT22;27753;55.724;37.612;2024-01-11T05:45:50;0.30;99.90
42095;DHT22;27753;55.724;37.612;2024-01-11T05:48:17;0.30;99.90
42095;DHT22;27753;55.724;37.612;2024-01-11T05:50:43;0.30;99.90
42095;DHT22;27753;55.724;37.612;2024-01-11T05:53:09;0.30;99.90
42095;DHT22;27753;55.724;37.612;2024-01-11T05:55:35;0.30;99.90
42095;DHT22;27753;55.724;37.612;2024-01-11T05:58:01;0.30;99.90
42095;DHT22;27753;55.724;37.612;2024-01-11T06:00:27;0.30;99.90
42095;DHT22;27753;55.724;37.612;2024-01-11T06:02:53;0.30;99.90
42095;DHT22;27753;55.724;37.612;2024-01-11T06:05:19;0.30;99.90
42095;DHT22;27753;55.724;37.612;2024-01-11T06:07:45;0.30;99.90
42095;DHT22;27753;55.724;37.612;2024-01-11T06:10:12;0.30;99.90
42095;DHT22;27753;55.724;37.612;2024-01-11T06:12:38;0.30;99.90
42095;DHT22;27753;55.724;37.612;2024-01-11T06:15:05;0.30;99.90
42095;DHT22;27753;55.724;37.612;2024-01-11T06:17:31;0.30;99.90
42095;DHT22;27753;55.724;37.612;2024-01-11T06:19:57;0.30;99.90
42095;DHT22;27753;55.724;37.612;2024-01-11T06:22:23;0.30;99.90
42095;DHT22;27753;55.724;37.612;2024-01-11T06:24:49;0.30;99.90
42095;DHT22;27753;55.724;37.612;2024-01-11T06:27:15;0.30;99.90
42095;DHT22;27753;55.724;37.612;2024-01-11T06:29:41;0.40;99.90
42095;DHT22;27753;55.724;37.612;2024-01-11T06:32:07;0.30;99.90
42095;DHT22;27753;55.724;37.612;2024-01-11T06:34:36;0.30;99.90
42095;DHT22;27753;55.724;37.612;2024-01-11T06:37:02;0.30;99.90
42095;DHT22;27753;55.724;37.612;2024-01-11T06:39:30;0.40;99.90
42095;DHT22;27753;55.724;37.612;2024-01-11T06:41:55;0.30;99.90
42095;DHT22;27753;55.724;37.612;2024-01-11T06:44:21;0.40;99.90
42095;DHT22;27753;55.724;37.612;2024-01-11T06:46:47;0.40;99.90
42095;DHT22;27753;55.724;37.612;2024-01-11T06:49:13;0.40;99.90
42095;DHT22;27753;55.724;37.612;2024-01-11T06:51:39;0.40;99.90
42095;DHT22;27753;55.724;37.612;2024-01-11T06:54:06;0.40;99.90
42095;DHT22;27753;55.724;37.612;2024-01-11T06:56:32;0.40;99.90
42095;DHT22;27753;55.724;37.612;2024-01-11T06:58:58;0.40;99.90
42095;DHT22;27753;55.724;37.612;2024-01-11T07:01:24;0.40;99.90
42095;DHT22;27753;55.724;37.612;2024-01-11T07:03:51;0.40;99.90
42095;DHT22;27753;55.724;37.612;2024-01-11T07:06:17;0.40;99.90
42095;DHT22;27753;55.724;37.612;2024-01-11T07:08:43;0.40;99.90
42095;DHT22;27753;55.724;37.612;2024-01-11T07:11:09;0.40;99.90
42095;DHT22;27753;55.724;37.612;2024-01-11T07:13:36;0.40;99.90
42095;DHT22;27753;55.724;37.612;2024-01-11T07:16:03;0.40;99.90
42095;DHT22;27753;55.724;37.612;2024-01-11T07:18:29;0.40;99.90
42095;DHT22;27753;55.724;37.612;2024-01-11T07:20:59;0.40;99.90
42095;DHT22;27753;55.724;37.612;2024-01-11T07:23:25;0.40;99.90
42095;DHT22;27753;55.724;37.612;2024-01-11T07:25:51;0.40;99.90
42095;DHT22;27753;55.724;37.612;2024-01-11T07:28:17;0.40;99.90
42095;DHT22;27753;55.724;37.612;2024-01-11T07:30:43;0.40;99.90
42095;DHT22;27753;55.724;37.612;2024-01-11T07:33:10;0.40;99.90
42095;DHT22;27753;55.724;37.612;2024-01-11T07:35:36;0.40;99.90
42095;DHT22;27753;55.724;37.612;2024-01-11T07:38:02;0.40;99.90
42095;DHT22;27753;55.724;37.612;2024-01-11T07:40:28;0.40;99.90
42095;DHT22;27753;55.724;37.612;2024-01-11T07:42:54;0.40;99.90
42095;DHT22;27753;55.724;37.612;2024-01-11T07:45:20;0.40;99.90
42095;DHT22;27753;55.724;37.612;2024-01-11T07:47:47;0.40;99.90
42095;DHT22;27753;55.724;37.612;2024-01-11T07:50:13;0.40;99.90
42095;DHT22;27753;55.724;37.612;2024-01-11T07:52:40;0.40;99.90
42095;DHT22;27753;55.724;37.612;2024-01-11T07:55:09;0.40;99.90
42095;DHT22;27753;55.724;37.612;2024-01-11T07:57:37;0.40;99.90
42095;DHT22;27753;55.724;37.612;2024-01-11T08:00:04;0.40;99.90
42095;DHT22;27753;55.724;37.612;2024-01-11T08:02:32;0.40;99.90
42095;DHT22;27753;55.724;37.612;2024-01-11T08:04:58;0.50;99.90
42095;DHT22;27753;55.724;37.612;2024-01-11T08:07:26;0.50;99.90
42095;DHT22;27753;55.724;37.612;2024-01-11T08:09:52;0.40;99.90
42095;DHT22;27753;55.724;37.612;2024-01-11T08:12:18;0.40;99.90
42095;DHT22;27753;55.724;37.612;2024-01-11T08:14:44;0.50;99.90
42095;DHT22;27753;55.724;37.612;2024-01-11T08:17:12;0.50;99.90
42095;DHT22;27753;55.724;37.612;2024-01-11T08:19:39;0.50;99.90
42095;DHT22;27753;55.724;37.612;2024-01-11T08:22:06;0.50;99.90
42095;DHT22;27753;55.724;37.612;2024-01-11T08:24:32;0.50;99.90
42095;DHT22;27753;55.724;37.612;2024-01-11T08:27:00;0.40;99.90
42095;DHT22;27753;55.724;37.612;2024-01-11T08:29:26;0.40;99.90
42095;DHT22;27753;55.724;37.612;2024-01-11T08:31:52;0.40;99.90
42095;DHT22;27753;55.724;37.612;2024-01-11T08:34:18;0.40;99.90
42095;DHT22;27753;55.724;37.612;2024-01-11T08:36:43;0.50;99.90
42095;DHT22;27753;55.724;37.612;2024-01-11T08:39:09;0.40;99.90
42095;DHT22;27753;55.724;37.612;2024-01-11T08:41:37;0.40;99.90
42095;DHT22;27753;55.724;37.612;2024-01-11T08:44:05;0.40;99.90
42095;DHT22;27753;55.724;37.612;2024-01-11T08:46:32;0.40;99.90
42095;DHT22;27753;55.724;37.612;2024-01-11T08:49:01;0.40;99.90
42095;DHT22;27753;55.724;37.612;2024-01-11T08:51:31;0.40;99.90
42095;DHT22;27753;55.724;37.612;2024-01-11T08:53:58;0.40;99.90
42095;DHT22;27753;55.724;37.612;2024-01-11T08:56:25;0.40;99.90
42095;DHT22;27753;55.724;37.612;2024-01-11T08:58:51;0.40;99.90
42095;DHT22;27753;55.724;37.612;2024-01-11T09:01:17;0.40;99.90
42095;DHT22;27753;55.724;37.612;2024-01-11T09:03:43;0.40;99.90
42095;DHT22;27753;55.724;37.612;2024-01-11T09:06:10;0.40;99.90
42095;DHT22;27753;55.724;37.612;2024-01-11T09:08:39;0.30;99.90
42095;DHT22;27753;55.724;37.612;2024-01-11T09:11:06;0.30;99.90
42095;DHT22;27753;55.724;37.612;2024-01-11T09:13:32;0.30;99.90
42095;DHT22;27753;55.724;37.612;2024-01-11T09:15:58;0.20;99.90
42095;DHT22;27753;55.724;37.612;2024-01-11T09:18:24;0.20;99.90
42095;DHT22;27753;55.724;37.612;2024-01-11T09:20:50;0.20;99.90
42095;DHT22;27753;55.724;37.612;2024-01-11T09:23:16;0.20;99.90
42095;DHT22;27753;55.724;37.612;2024-01-11T09:25:43;0.20;99.90
42095;DHT22;27753;55.724;37.612;2024-01-11T09:28:09;0.10;99.90
42095;DHT22;27753;55.724;37.612;2024-01-11T09:30:35;0.10;99.90
42095;DHT22;27753;55.724;37.612;2024-01-11T09:33:01;0.10;99.90
42095;DHT22;27753;55.724;37.612;2024-01-11T09:35:27;0.20;99.90
42095;DHT22;27753;55.724;37.612;2024-01-11T09:37:53;0.10;99.90
42095;DHT22;27753;55.724;37.612;2024-01-11T09:40:19;0.10;99.90
42095;DHT22;27753;55.724;37.612;2024-01-11T09:42:45;0.10;99.90
42095;DHT22;27753;55.724;37.612;2024-01-11T09:45:16;0.10;99.90
42095;DHT22;27753;55.724;37.612;2024-01-11T09:47:45;0.10;99.90
42095;DHT22;27753;55.724;37.612;2024-01-11T09:50:14;0.10;99.90
42095;DHT22;27753;55.724;37.612;2024-01-11T09:52:50;0.10;99.90
42095;DHT22;27753;55.724;37.612;2024-01-11T09:55:16;0.10;99.90
42095;DHT22;27753;55.724;37.612;2024-01-11T09:57:47;0.10;99.90
42095;DHT22;27753;55.724;37.612;2024-01-11T10:00:23;0.10;99.90
42095;DHT22;27753;55.724;37.612;2024-01-11T10:02:49;0.10;99.90
42095;DHT22;27753;55.724;37.612;2024-01-11T10:05:18;0.10;99.90
42095;DHT22;27753;55.724;37.612;2024-01-11T10:07:44;0.00;99.70
42095;DHT22;27753;55.724;37.612;2024-01-11T10:10:12;0.00;99.10
42095;DHT22;27753;55.724;37.612;2024-01-11T10:12:40;0.00;98.90
42095;DHT22;27753;55.724;37.612;2024-01-11T10:15:08;-0.10;98.40
42095;DHT22;27753;55.724;37.612;2024-01-11T10:17:43;-0.10;98.20
42095;DHT22;27753;55.724;37.612;2024-01-11T10:20:15;-0.10;98.00
42095;DHT22;27753;55.724;37.612;2024-01-11T10:22:46;-0.10;98.10
42095;DHT22;27753;55.724;37.612;2024-01-11T10:25:13;-0.20;98.10
42095;DHT22;27753;55.724;37.612;2024-01-11T10:27:40;-0.20;97.00
42095;DHT22;27753;55.724;37.612;2024-01-11T10:30:13;-0.20;95.00
42095;DHT22;27753;55.724;37.612;2024-01-11T10:32:42;-0.40;95.60
42095;DHT22;27753;55.724;37.612;2024-01-11T10:35:08;-0.50;93.50
42095;DHT22;27753;55.724;37.612;2024-01-11T10:37:36;-0.50;94.00
42095;DHT22;27753;55.724;37.612;2024-01-11T10:40:05;-0.50;94.20
42095;DHT22;27753;55.724;37.612;2024-01-11T10:42:51;-0.70;92.70
42095;DHT22;27753;55.724;37.612;2024-01-11T10:45:18;-0.80;93.30
42095;DHT22;27753;55.724;37.612;2024-01-11T10:48:01;-0.80;93.70
42095;DHT22;27753;55.724;37.612;2024-01-11T10:50:37;-0.80;94.00
42095;DHT22;27753;55.724;37.612;2024-01-11T10:53:35;-0.80;94.20
42095;DHT22;27753;55.724;37.612;2024-01-11T10:56:03;-0.90;93.90
42095;DHT22;27753;55.724;37.612;2024-01-11T10:58:30;-1.10;94.00
42095;DHT22;27753;55.724;37.612;2024-01-11T11:00:57;-1.20;93.90
42095;DHT22;27753;55.724;37.612;2024-01-11T11:03:25;-1.40;94.00
42095;DHT22;27753;55.724;37.612;2024-01-11T11:05:54;-1.50;94.40
42095;DHT22;27753;55.724;37.612;2024-01-11T11:08:24;-1.50;94.50
42095;DHT22;27753;55.724;37.612;2024-01-11T11:11:01;-1.60;93.30
42095;DHT22;27753;55.724;37.612;2024-01-11T11:13:29;-1.90;93.40
42095;DHT22;27753;55.724;37.612;2024-01-11T11:15:55;-2.10;93.40
42095;DHT22;27753;55.724;37.612;2024-01-11T11:18:23;-2.20;92.80
42095;DHT22;27753;55.724;37.612;2024-01-11T11:20:50;-2.40;92.40
42095;DHT22;27753;55.724;37.612;2024-01-11T11:23:17;-2.70;92.00
42095;DHT22;27753;55.724;37.612;2024-01-11T11:25:47;-3.00;91.90
42095;DHT22;27753;55.724;37.612;2024-01-11T11:28:14;-3.20;91.40
42095;DHT22;27753;55.724;37.612;2024-01-11T11:30:42;-3.60;91.40
42095;DHT22;27753;55.724;37.612;2024-01-11T11:33:25;-3.80;91.40
42095;DHT22;27753;55.724;37.612;2024-01-11T11:35:56;-4.10;92.00
42095;DHT22;27753;55.724;37.612;2024-01-11T11:38:25;-4.30;92.10
42095;DHT22;27753;55.724;37.612;2024-01-11T11:40:52;-4.40;92.50
42095;DHT22;27753;55.724;37.612;2024-01-11T11:43:20;-4.50;92.70
42095;DHT22;27753;55.724;37.612;2024-01-11T11:45:47;-4.50;92.80
42095;DHT22;27753;55.724;37.612;2024-01-11T11:51:09;-4.80;92.60
42095;DHT22;27753;55.724;37.612;2024-01-11T11:53:40;-4.80;93.70
42095;DHT22;27753;55.724;37.612;2024-01-11T11:56:08;-4.90;93.70
42095;DHT22;27753;55.724;37.612;2024-01-11T11:58:38;-5.00;93.60
42095;DHT22;27753;55.724;37.612;2024-01-11T12:01:04;-5.00;94.00
42095;DHT22;27753;55.724;37.612;2024-01-11T12:03:32;-5.10;94.30
42095;DHT22;27753;55.724;37.612;2024-01-11T12:05:59;-5.20;94.30
42095;DHT22;27753;55.724;37.612;2024-01-11T12:08:25;-5.20;94.30
42095;DHT22;27753;55.724;37.612;2024-01-11T12:10:51;-5.20;94.30
42095;DHT22;27753;55.724;37.612;2024-01-11T12:13:18;-5.30;94.30
42095;DHT22;27753;55.724;37.612;2024-01-11T12:15:44;-5.30;94.30
42095;DHT22;27753;55.724;37.612;2024-01-11T12:18:10;-5.30;94.30
42095;DHT22;27753;55.724;37.612;2024-01-11T12:20:36;-5.30;94.60
42095;DHT22;27753;55.724;37.612;2024-01-11T12:23:03;-5.30;94.80
42095;DHT22;27753;55.724;37.612;2024-01-11T12:25:29;-5.30;94.50
42095;DHT22;27753;55.724;37.612;2024-01-11T12:27:55;-5.30;94.60
42095;DHT22;27753;55.724;37.612;2024-01-11T12:30:26;-5.40;94.20
42095;DHT22;27753;55.724;37.612;2024-01-11T12:32:53;-5.50;94.20
42095;DHT22;27753;55.724;37.612;2024-01-11T12:35:20;-5.60;94.50
42095;DHT22;27753;55.724;37.612;2024-01-11T12:37:59;-5.60;94.90
42095;DHT22;27753;55.724;37.612;2024-01-11T12:40:26;-5.60;94.20
42095;DHT22;27753;55.724;37.612;2024-01-11T12:42:56;-5.80;94.50
42095;DHT22;27753;55.724;37.612;2024-01-11T12:45:24;-5.90;94.70
42095;DHT22;27753;55.724;37.612;2024-01-11T12:47:55;-6.00;95.30
42095;DHT22;27753;55.724;37.612;2024-01-11T12:50:23;-6.00;95.70
42095;DHT22;27753;55.724;37.612;2024-01-11T12:53:11;-6.00;96.10
42095;DHT22;27753;55.724;37.612;2024-01-11T12:55:46;-6.00;95.30
42095;DHT22;27753;55.724;37.612;2024-01-11T12:58:13;-6.20;94.70
42095;DHT22;27753;55.724;37.612;2024-01-11T13:00:39;-6.30;95.10
42095;DHT22;27753;55.724;37.612;2024-01-11T13:03:06;-6.30;95.40
42095;DHT22;27753;55.724;37.612;2024-01-11T13:05:32;-6.20;95.80
42095;DHT22;27753;55.724;37.612;2024-01-11T13:08:13;-6.30;95.90
42095;DHT22;27753;55.724;37.612;2024-01-11T13:10:39;-6.30;96.10
42095;DHT22;27753;55.724;37.612;2024-01-11T13:13:05;-6.40;95.70
42095;DHT22;27753;55.724;37.612;2024-01-11T13:15:34;-6.40;95.30
42095;DHT22;27753;55.724;37.612;2024-01-11T13:18:02;-6.50;94.30
42095;DHT22;27753;55.724;37.612;2024-01-11T13:20:28;-6.50;93.60
42095;DHT22;27753;55.724;37.612;2024-01-11T13:25:44;-6.80;92.90
42095;DHT22;27753;55.724;37.612;2024-01-11T13:28:11;-6.90;92.80
42095;DHT22;27753;55.724;37.612;2024-01-11T13:30:41;-6.90;92.80
42095;DHT22;27753;55.724;37.612;2024-01-11T13:33:12;-7.00;93.20
42095;DHT22;27753;55.724;37.612;2024-01-11T13:35:39;-7.00;93.40
42095;DHT22;27753;55.724;37.612;2024-01-11T13:38:05;-7.00;93.80
42095;DHT22;27753;55.724;37.612;2024-01-11T13:40:32;-7.00;92.90
42095;DHT22;27753;55.724;37.612;2024-01-11T13:42:59;-7.00;93.00
42095;DHT22;27753;55.724;37.612;2024-01-11T13:45:25;-7.00;93.50
42095;DHT22;27753;55.724;37.612;2024-01-11T13:47:52;-7.00;93.40
42095;DHT22;27753;55.724;37.612;2024-01-11T13:50:22;-7.10;93.30
42095;DHT22;27753;55.724;37.612;2024-01-11T13:52:49;-7.10;93.70
42095;DHT22;27753;55.724;37.612;2024-01-11T13:55:16;-7.10;94.10
42095;DHT22;27753;55.724;37.612;2024-01-11T13:57:47;-7.10;93.70
42095;DHT22;27753;55.724;37.612;2024-01-11T14:00:13;-7.10;94.00
42095;DHT22;27753;55.724;37.612;2024-01-11T14:02:40;-7.10;93.80
42095;DHT22;27753;55.724;37.612;2024-01-11T14:05:11;-7.20;93.80
42095;DHT22;27753;55.724;37.612;2024-01-11T14:07:39;-7.20;94.40
42095;DHT22;27753;55.724;37.612;2024-01-11T14:10:06;-7.20;93.90
42095;DHT22;27753;55.724;37.612;2024-01-11T14:12:34;-7.20;94.20
42095;DHT22;27753;55.724;37.612;2024-01-11T14:15:00;-7.20;93.70
42095;DHT22;27753;55.724;37.612;2024-01-11T14:17:26;-7.20;94.10
42095;DHT22;27753;55.724;37.612;2024-01-11T14:19:52;-7.30;94.60
42095;DHT22;27753;55.724;37.612;2024-01-11T14:22:18;-7.20;95.20
42095;DHT22;27753;55.724;37.612;2024-01-11T14:24:44;-7.20;94.90
42095;DHT22;27753;55.724;37.612;2024-01-11T14:27:11;-7.20;94.60
42095;DHT22;27753;55.724;37.612;2024-01-11T14:29:36;-7.20;94.60
42095;DHT22;27753;55.724;37.612;2024-01-11T14:32:05;-7.20;94.30
42095;DHT22;27753;55.724;37.612;2024-01-11T14:34:31;-7.30;94.10
42095;DHT22;27753;55.724;37.612;2024-01-11T14:37:00;-7.30;94.60
42095;DHT22;27753;55.724;37.612;2024-01-11T14:39:26;-7.30;94.60
42095;DHT22;27753;55.724;37.612;2024-01-11T14:41:52;-7.30;94.70
42095;DHT22;27753;55.724;37.612;2024-01-11T14:44:18;-7.30;94.60
42095;DHT22;27753;55.724;37.612;2024-01-11T14:46:44;-7.30;94.80
42095;DHT22;27753;55.724;37.612;2024-01-11T14:49:10;-7.30;94.90
42095;DHT22;27753;55.724;37.612;2024-01-11T14:51:36;-7.40;95.00
42095;DHT22;27753;55.724;37.612;2024-01-11T14:54:03;-7.30;95.30
42095;DHT22;27753;55.724;37.612;2024-01-11T14:56:30;-7.40;95.40
42095;DHT22;27753;55.724;37.612;2024-01-11T14:58:57;-7.40;95.00
42095;DHT22;27753;55.724;37.612;2024-01-11T15:01:23;-7.40;95.10
42095;DHT22;27753;55.724;37.612;2024-01-11T15:03:49;-7.40;95.40
42095;DHT22;27753;55.724;37.612;2024-01-11T15:06:15;-7.40;95.70
42095;DHT22;27753;55.724;37.612;2024-01-11T15:08:41;-7.40;95.60
42095;DHT22;27753;55.724;37.612;2024-01-11T15:11:08;-7.40;95.80
42095;DHT22;27753;55.724;37.612;2024-01-11T15:13:34;-7.40;95.80
42095;DHT22;27753;55.724;37.612;2024-01-11T15:16:01;-7.40;95.70
42095;DHT22;27753;55.724;37.612;2024-01-11T15:18:27;-7.40;95.90
42095;DHT22;27753;55.724;37.612;2024-01-11T15:20:53;-7.40;96.00
42095;DHT22;27753;55.724;37.612;2024-01-11T15:23:19;-7.40;95.90
42095;DHT22;27753;55.724;37.612;2024-01-11T15:25:45;-7.40;95.70
42095;DHT22;27753;55.724;37.612;2024-01-11T15:28:11;-7.40;95.80